sensor_id;sensor_type;location;lat;lon;timestamp;P1;durP1;ratioP1;P2;durP2;ratioP2
37049;SDS011;22958;51.232;6.826;2023-01-19T00:01:18;22.40;;;10.43;;
37049;SDS011;22958;51.232;6.826;2023-01-19T00:03:44;25.58;;;8.95;;
37049;SDS011;22958;51.232;6.826;2023-01-19T00:06:10;20.10;;;10.27;;
37049;SDS011;22958;51.232;6.826;2023-01-19T00:08:36;20.03;;;10.83;;
37049;SDS011;22958;51.232;6.826;2023-01-19T00:11:02;25.70;;;11.30;;
37049;SDS011;22958;51.232;6.826;2023-01-19T00:13:28;24.55;;;11.75;;
37049;SDS011;22958;51.232;6.826;2023-01-19T00:15:53;24.53;;;11.00;;
37049;SDS011;22958;51.232;6.826;2023-01-19T00:18:19;23.93;;;11.37;;
37049;SDS011;22958;51.232;6.826;2023-01-19T00:20:45;28.67;;;12.00;;
37049;SDS011;22958;51.232;6.826;2023-01-19T00:23:11;27.30;;;10.48;;
37049;SDS011;22958;51.232;6.826;2023-01-19T00:25:37;23.10;;;10.93;;
37049;SDS011;22958;51.232;6.826;2023-01-19T00:28:10;25.30;;;11.30;;
37049;SDS011;22958;51.232;6.826;2023-01-19T00:30:36;21.25;;;10.93;;
37049;SDS011;22958;51.232;6.826;2023-01-19T00:33:02;23.17;;;11.07;;
37049;SDS011;22958;51.232;6.826;2023-01-19T00:35:28;26.67;;;12.30;;
37049;SDS011;22958;51.232;6.826;2023-01-19T00:37:54;19.17;;;10.87;;
37049;SDS011;22958;51.232;6.826;2023-01-19T00:40:20;22.90;;;10.73;;
37049;SDS011;22958;51.232;6.826;2023-01-19T00:42:46;22.47;;;11.77;;
37049;SDS011;22958;51.232;6.826;2023-01-19T00:45:19;25.13;;;11.97;;
37049;SDS011;22958;51.232;6.826;2023-01-19T00:47:45;22.25;;;10.50;;
37049;SDS011;22958;51.232;6.826;2023-01-19T00:50:12;26.77;;;11.55;;
37049;SDS011;22958;51.232;6.826;2023-01-19T00:52:41;21.60;;;11.00;;
37049;SDS011;22958;51.232;6.826;2023-01-19T00:55:08;22.00;;;10.82;;
37049;SDS011;22958;51.232;6.826;2023-01-19T00:57:35;19.90;;;10.70;;
37049;SDS011;22958;51.232;6.826;2023-01-19T01:00:02;23.13;;;10.32;;
37049;SDS011;22958;51.232;6.826;2023-01-19T01:02:30;22.73;;;10.40;;
37049;SDS011;22958;51.232;6.826;2023-01-19T01:04:56;22.63;;;11.07;;
37049;SDS011;22958;51.232;6.826;2023-01-19T01:07:21;22.60;;;11.60;;
37049;SDS011;22958;51.232;6.826;2023-01-19T01:09:48;23.98;;;11.52;;
37049;SDS011;22958;51.232;6.826;2023-01-19T01:12:14;25.40;;;11.00;;
37049;SDS011;22958;51.232;6.826;2023-01-19T01:14:39;24.10;;;10.13;;
37049;SDS011;22958;51.232;6.826;2023-01-19T01:17:05;22.00;;;10.70;;
37049;SDS011;22958;51.232;6.826;2023-01-19T01:19:35;24.52;;;10.63;;
37049;SDS011;22958;51.232;6.826;2023-01-19T01:22:04;21.10;;;10.88;;
37049;SDS011;22958;51.232;6.826;2023-01-19T01:24:30;31.42;;;12.10;;
37049;SDS011;22958;51.232;6.826;2023-01-19T01:26:56;23.98;;;11.18;;
37049;SDS011;22958;51.232;6.826;2023-01-19T01:29:22;38.07;;;11.73;;
37049;SDS011;22958;51.232;6.826;2023-01-19T01:31:47;22.50;;;10.57;;
37049;SDS011;22958;51.232;6.826;2023-01-19T01:34:13;24.20;;;10.50;;
37049;SDS011;22958;51.232;6.826;2023-01-19T01:36:38;25.30;;;11.63;;
37049;SDS011;22958;51.232;6.826;2023-01-19T01:39:04;22.07;;;11.33;;
37049;SDS011;22958;51.232;6.826;2023-01-19T01:41:30;22.83;;;11.47;;
37049;SDS011;22958;51.232;6.826;2023-01-19T01:43:56;28.45;;;11.35;;
37049;SDS011;22958;51.232;6.826;2023-01-19T01:46:23;30.17;;;10.90;;
37049;SDS011;22958;51.232;6.826;2023-01-19T01:48:54;23.48;;;11.38;;
37049;SDS011;22958;51.232;6.826;2023-01-19T01:51:37;22.33;;;11.55;;
37049;SDS011;22958;51.232;6.826;2023-01-19T01:56:48;31.67;;;12.05;;
37049;SDS011;22958;51.232;6.826;2023-01-19T01:59:20;29.35;;;11.77;;
37049;SDS011;22958;51.232;6.826;2023-01-19T02:01:58;31.77;;;11.55;;
37049;SDS011;22958;51.232;6.826;2023-01-19T02:04:46;27.77;;;12.07;;
37049;SDS011;22958;51.232;6.826;2023-01-19T02:07:23;25.70;;;10.90;;
37049;SDS011;22958;51.232;6.826;2023-01-19T02:10:14;27.95;;;11.77;;
37049;SDS011;22958;51.232;6.826;2023-01-19T02:12:58;28.65;;;10.40;;
37049;SDS011;22958;51.232;6.826;2023-01-19T02:15:44;22.33;;;11.18;;
37049;SDS011;22958;51.232;6.826;2023-01-19T02:18:09;27.17;;;11.15;;
37049;SDS011;22958;51.232;6.826;2023-01-19T02:20:35;25.30;;;11.13;;
37049;SDS011;22958;51.232;6.826;2023-01-19T02:23:02;27.45;;;10.75;;
37049;SDS011;22958;51.232;6.826;2023-01-19T02:28:05;27.85;;;11.43;;
37049;SDS011;22958;51.232;6.826;2023-01-19T02:30:31;28.60;;;11.55;;
37049;SDS011;22958;51.232;6.826;2023-01-19T02:32:57;25.55;;;11.63;;
37049;SDS011;22958;51.232;6.826;2023-01-19T02:35:23;24.87;;;11.00;;
37049;SDS011;22958;51.232;6.826;2023-01-19T02:37:49;22.98;;;11.80;;
37049;SDS011;22958;51.232;6.826;2023-01-19T02:42:50;29.55;;;10.40;;
37049;SDS011;22958;51.232;6.826;2023-01-19T02:45:20;26.75;;;11.73;;
37049;SDS011;22958;51.232;6.826;2023-01-19T02:52:59;19.48;;;10.07;;
37049;SDS011;22958;51.232;6.826;2023-01-19T02:55:34;24.88;;;11.55;;
37049;SDS011;22958;51.232;6.826;2023-01-19T03:03:24;21.13;;;10.70;;
37049;SDS011;22958;51.232;6.826;2023-01-19T03:05:58;22.03;;;10.87;;
37049;SDS011;22958;51.232;6.826;2023-01-19T03:11:17;26.88;;;11.52;;
37049;SDS011;22958;51.232;6.826;2023-01-19T03:13:56;21.80;;;10.97;;
37049;SDS011;22958;51.232;6.826;2023-01-19T03:19:13;21.27;;;10.48;;
37049;SDS011;22958;51.232;6.826;2023-01-19T03:21:59;25.20;;;10.93;;
37049;SDS011;22958;51.232;6.826;2023-01-19T03:24:30;24.92;;;10.88;;
37049;SDS011;22958;51.232;6.826;2023-01-19T03:27:01;26.60;;;11.18;;
37049;SDS011;22958;51.232;6.826;2023-01-19T03:29:32;29.85;;;9.75;;
37049;SDS011;22958;51.232;6.826;2023-01-19T03:31:59;20.20;;;10.43;;
37049;SDS011;22958;51.232;6.826;2023-01-19T03:34:33;24.95;;;9.93;;
37049;SDS011;22958;51.232;6.826;2023-01-19T03:37:01;28.65;;;9.60;;
37049;SDS011;22958;51.232;6.826;2023-01-19T03:39:28;27.88;;;9.85;;
37049;SDS011;22958;51.232;6.826;2023-01-19T03:41:59;27.58;;;10.07;;
37049;SDS011;22958;51.232;6.826;2023-01-19T03:44:29;25.33;;;10.27;;
37049;SDS011;22958;51.232;6.826;2023-01-19T03:46:58;22.40;;;9.77;;
37049;SDS011;22958;51.232;6.826;2023-01-19T03:49:24;20.45;;;9.75;;
37049;SDS011;22958;51.232;6.826;2023-01-19T03:51:50;26.43;;;10.33;;
37049;SDS011;22958;51.232;6.826;2023-01-19T03:54:19;24.75;;;9.02;;
37049;SDS011;22958;51.232;6.826;2023-01-19T03:56:45;19.00;;;8.73;;
37049;SDS011;22958;51.232;6.826;2023-01-19T03:59:10;18.90;;;10.70;;
37049;SDS011;22958;51.232;6.826;2023-01-19T04:01:36;18.23;;;8.47;;
37049;SDS011;22958;51.232;6.826;2023-01-19T04:04:01;21.37;;;8.57;;
37049;SDS011;22958;51.232;6.826;2023-01-19T04:06:27;28.77;;;8.93;;
37049;SDS011;22958;51.232;6.826;2023-01-19T04:08:52;24.10;;;9.33;;
37049;SDS011;22958;51.232;6.826;2023-01-19T04:11:18;23.25;;;9.50;;
37049;SDS011;22958;51.232;6.826;2023-01-19T04:13:44;22.93;;;9.93;;
37049;SDS011;22958;51.232;6.826;2023-01-19T04:16:09;22.90;;;9.40;;
37049;SDS011;22958;51.232;6.826;2023-01-19T04:18:36;23.38;;;9.95;;
37049;SDS011;22958;51.232;6.826;2023-01-19T04:21:03;25.20;;;12.10;;
37049;SDS011;22958;51.232;6.826;2023-01-19T04:23:30;27.00;;;11.43;;
37049;SDS011;22958;51.232;6.826;2023-01-19T04:25:59;25.35;;;10.77;;
37049;SDS011;22958;51.232;6.826;2023-01-19T04:28:27;26.77;;;11.10;;
37049;SDS011;22958;51.232;6.826;2023-01-19T04:30:52;30.27;;;10.13;;
37049;SDS011;22958;51.232;6.826;2023-01-19T04:33:18;32.53;;;11.63;;
37049;SDS011;22958;51.232;6.826;2023-01-19T04:35:45;33.28;;;12.50;;
37049;SDS011;22958;51.232;6.826;2023-01-19T04:38:11;29.77;;;11.60;;
37049;SDS011;22958;51.232;6.826;2023-01-19T04:40:36;27.57;;;10.87;;
37049;SDS011;22958;51.232;6.826;2023-01-19T04:43:02;24.20;;;12.03;;
37049;SDS011;22958;51.232;6.826;2023-01-19T04:45:27;33.77;;;12.67;;
37049;SDS011;22958;51.232;6.826;2023-01-19T04:47:53;37.83;;;12.17;;
37049;SDS011;22958;51.232;6.826;2023-01-19T04:50:19;29.17;;;10.67;;
37049;SDS011;22958;51.232;6.826;2023-01-19T04:52:45;32.37;;;12.60;;
37049;SDS011;22958;51.232;6.826;2023-01-19T04:55:11;33.97;;;13.98;;
37049;SDS011;22958;51.232;6.826;2023-01-19T04:57:36;35.93;;;13.77;;
37049;SDS011;22958;51.232;6.826;2023-01-19T05:00:03;39.90;;;13.83;;
37049;SDS011;22958;51.232;6.826;2023-01-19T05:02:30;33.55;;;13.27;;
37049;SDS011;22958;51.232;6.826;2023-01-19T05:04:56;43.70;;;14.67;;
37049;SDS011;22958;51.232;6.826;2023-01-19T05:07:21;35.97;;;14.50;;
37049;SDS011;22958;51.232;6.826;2023-01-19T05:09:47;34.77;;;13.57;;
37049;SDS011;22958;51.232;6.826;2023-01-19T05:12:12;46.47;;;15.23;;
37049;SDS011;22958;51.232;6.826;2023-01-19T05:14:38;43.83;;;14.97;;
37049;SDS011;22958;51.232;6.826;2023-01-19T05:17:03;35.87;;;15.27;;
37049;SDS011;22958;51.232;6.826;2023-01-19T05:19:29;48.47;;;17.90;;
37049;SDS011;22958;51.232;6.826;2023-01-19T05:21:54;39.27;;;15.73;;
37049;SDS011;22958;51.232;6.826;2023-01-19T05:24:20;46.03;;;19.07;;
37049;SDS011;22958;51.232;6.826;2023-01-19T05:26:45;42.33;;;15.47;;
37049;SDS011;22958;51.232;6.826;2023-01-19T05:29:11;39.57;;;16.50;;
37049;SDS011;22958;51.232;6.826;2023-01-19T05:31:37;54.13;;;18.33;;
37049;SDS011;22958;51.232;6.826;2023-01-19T05:34:03;44.70;;;17.93;;
37049;SDS011;22958;51.232;6.826;2023-01-19T05:36:29;55.00;;;17.97;;
37049;SDS011;22958;51.232;6.826;2023-01-19T05:38:54;48.40;;;18.33;;
37049;SDS011;22958;51.232;6.826;2023-01-19T05:41:20;48.43;;;17.87;;
37049;SDS011;22958;51.232;6.826;2023-01-19T05:43:45;54.47;;;19.07;;
37049;SDS011;22958;51.232;6.826;2023-01-19T05:46:11;54.40;;;20.63;;
37049;SDS011;22958;51.232;6.826;2023-01-19T05:48:37;46.78;;;18.40;;
37049;SDS011;22958;51.232;6.826;2023-01-19T05:51:03;48.40;;;18.17;;
37049;SDS011;22958;51.232;6.826;2023-01-19T05:53:29;45.95;;;20.70;;
37049;SDS011;22958;51.232;6.826;2023-01-19T05:55:59;47.05;;;19.23;;
37049;SDS011;22958;51.232;6.826;2023-01-19T05:58:26;56.72;;;18.30;;
37049;SDS011;22958;51.232;6.826;2023-01-19T06:00:52;47.65;;;20.02;;
37049;SDS011;22958;51.232;6.826;2023-01-19T06:03:18;47.93;;;18.97;;
37049;SDS011;22958;51.232;6.826;2023-01-19T06:05:43;46.97;;;18.80;;
37049;SDS011;22958;51.232;6.826;2023-01-19T06:08:09;50.77;;;18.33;;
37049;SDS011;22958;51.232;6.826;2023-01-19T06:10:34;45.60;;;17.37;;
37049;SDS011;22958;51.232;6.826;2023-01-19T06:13:00;45.70;;;17.93;;
37049;SDS011;22958;51.232;6.826;2023-01-19T06:15:25;43.53;;;18.50;;
37049;SDS011;22958;51.232;6.826;2023-01-19T06:17:51;38.97;;;16.43;;
37049;SDS011;22958;51.232;6.826;2023-01-19T06:20:16;44.33;;;16.93;;
37049;SDS011;22958;51.232;6.826;2023-01-19T06:22:42;49.30;;;17.00;;
37049;SDS011;22958;51.232;6.826;2023-01-19T06:25:08;42.87;;;17.47;;
37049;SDS011;22958;51.232;6.826;2023-01-19T06:27:34;44.73;;;15.63;;
37049;SDS011;22958;51.232;6.826;2023-01-19T06:30:00;38.40;;;15.15;;
37049;SDS011;22958;51.232;6.826;2023-01-19T06:32:26;35.75;;;14.45;;
37049;SDS011;22958;51.232;6.826;2023-01-19T06:34:51;32.10;;;13.63;;
37049;SDS011;22958;51.232;6.826;2023-01-19T06:37:17;34.57;;;14.57;;
37049;SDS011;22958;51.232;6.826;2023-01-19T06:39:42;33.50;;;14.67;;
37049;SDS011;22958;51.232;6.826;2023-01-19T06:42:09;36.20;;;14.98;;
37049;SDS011;22958;51.232;6.826;2023-01-19T06:44:35;34.25;;;13.43;;
37049;SDS011;22958;51.232;6.826;2023-01-19T06:47:01;33.63;;;14.30;;
37049;SDS011;22958;51.232;6.826;2023-01-19T06:49:26;32.17;;;13.20;;
37049;SDS011;22958;51.232;6.826;2023-01-19T06:51:52;34.53;;;12.87;;
37049;SDS011;22958;51.232;6.826;2023-01-19T06:54:17;32.13;;;13.43;;
37049;SDS011;22958;51.232;6.826;2023-01-19T06:56:43;30.60;;;14.17;;
37049;SDS011;22958;51.232;6.826;2023-01-19T06:59:08;30.97;;;14.17;;
37049;SDS011;22958;51.232;6.826;2023-01-19T07:01:34;43.00;;;17.27;;
37049;SDS011;22958;51.232;6.826;2023-01-19T07:03:59;33.37;;;14.53;;
37049;SDS011;22958;51.232;6.826;2023-01-19T07:06:25;35.90;;;14.53;;
37049;SDS011;22958;51.232;6.826;2023-01-19T07:08:53;32.25;;;16.25;;
37049;SDS011;22958;51.232;6.826;2023-01-19T07:11:19;40.23;;;16.73;;
37049;SDS011;22958;51.232;6.826;2023-01-19T07:13:44;35.70;;;17.03;;
37049;SDS011;22958;51.232;6.826;2023-01-19T07:16:15;43.35;;;16.42;;
37049;SDS011;22958;51.232;6.826;2023-01-19T07:18:41;38.33;;;16.33;;
37049;SDS011;22958;51.232;6.826;2023-01-19T07:21:06;34.67;;;16.30;;
37049;SDS011;22958;51.232;6.826;2023-01-19T07:23:32;48.90;;;17.02;;
37049;SDS011;22958;51.232;6.826;2023-01-19T07:25:59;41.17;;;16.42;;
37049;SDS011;22958;51.232;6.826;2023-01-19T07:28:25;43.17;;;17.15;;
37049;SDS011;22958;51.232;6.826;2023-01-19T07:30:55;43.95;;;16.73;;
37049;SDS011;22958;51.232;6.826;2023-01-19T07:33:22;38.93;;;17.00;;
37049;SDS011;22958;51.232;6.826;2023-01-19T07:35:49;44.95;;;18.15;;
37049;SDS011;22958;51.232;6.826;2023-01-19T07:38:15;40.90;;;18.52;;
37049;SDS011;22958;51.232;6.826;2023-01-19T07:40:42;41.38;;;17.63;;
37049;SDS011;22958;51.232;6.826;2023-01-19T07:43:12;46.35;;;17.60;;
37049;SDS011;22958;51.232;6.826;2023-01-19T07:45:38;46.00;;;18.60;;
37049;SDS011;22958;51.232;6.826;2023-01-19T07:48:04;43.47;;;18.30;;
37049;SDS011;22958;51.232;6.826;2023-01-19T07:50:30;43.30;;;18.80;;
37049;SDS011;22958;51.232;6.826;2023-01-19T07:52:56;47.00;;;18.47;;
37049;SDS011;22958;51.232;6.826;2023-01-19T07:55:21;52.23;;;19.37;;
37049;SDS011;22958;51.232;6.826;2023-01-19T07:57:48;54.75;;;19.38;;
37049;SDS011;22958;51.232;6.826;2023-01-19T08:00:17;48.22;;;19.38;;
37049;SDS011;22958;51.232;6.826;2023-01-19T08:02:46;53.30;;;20.67;;
37049;SDS011;22958;51.232;6.826;2023-01-19T08:05:14;56.42;;;22.05;;
37049;SDS011;22958;51.232;6.826;2023-01-19T08:07:40;67.65;;;25.92;;
37049;SDS011;22958;51.232;6.826;2023-01-19T08:10:06;57.30;;;24.90;;
37049;SDS011;22958;51.232;6.826;2023-01-19T08:12:32;74.45;;;29.45;;
37049;SDS011;22958;51.232;6.826;2023-01-19T08:14:58;71.73;;;28.43;;
37049;SDS011;22958;51.232;6.826;2023-01-19T08:17:24;64.27;;;25.57;;
37049;SDS011;22958;51.232;6.826;2023-01-19T08:19:49;67.40;;;26.47;;
37049;SDS011;22958;51.232;6.826;2023-01-19T08:22:15;71.17;;;27.00;;
37049;SDS011;22958;51.232;6.826;2023-01-19T08:24:40;56.63;;;23.70;;
37049;SDS011;22958;51.232;6.826;2023-01-19T08:27:06;65.77;;;27.07;;
37049;SDS011;22958;51.232;6.826;2023-01-19T08:29:34;63.20;;;25.90;;
37049;SDS011;22958;51.232;6.826;2023-01-19T08:32:00;62.10;;;27.52;;
37049;SDS011;22958;51.232;6.826;2023-01-19T08:36:54;47.33;;;18.45;;
37049;SDS011;22958;51.232;6.826;2023-01-19T08:39:19;54.30;;;20.97;;
37049;SDS011;22958;51.232;6.826;2023-01-19T08:41:47;52.63;;;19.75;;
37049;SDS011;22958;51.232;6.826;2023-01-19T08:44:13;45.63;;;19.70;;
37049;SDS011;22958;51.232;6.826;2023-01-19T08:46:39;54.30;;;22.70;;
37049;SDS011;22958;51.232;6.826;2023-01-19T08:49:05;46.77;;;21.67;;
37049;SDS011;22958;51.232;6.826;2023-01-19T08:51:31;53.93;;;25.60;;
37049;SDS011;22958;51.232;6.826;2023-01-19T08:53:56;67.43;;;27.30;;
37049;SDS011;22958;51.232;6.826;2023-01-19T08:56:22;63.03;;;27.80;;
37049;SDS011;22958;51.232;6.826;2023-01-19T08:58:47;59.73;;;25.33;;
37049;SDS011;22958;51.232;6.826;2023-01-19T09:01:13;60.70;;;26.43;;
37049;SDS011;22958;51.232;6.826;2023-01-19T09:03:40;62.70;;;27.63;;
37049;SDS011;22958;51.232;6.826;2023-01-19T09:06:06;57.00;;;25.37;;
37049;SDS011;22958;51.232;6.826;2023-01-19T09:10:58;58.95;;;24.83;;
37049;SDS011;22958;51.232;6.826;2023-01-19T09:13:24;61.30;;;26.27;;
37049;SDS011;22958;51.232;6.826;2023-01-19T09:15:49;62.30;;;26.77;;
37049;SDS011;22958;51.232;6.826;2023-01-19T09:18:16;67.23;;;26.30;;
37049;SDS011;22958;51.232;6.826;2023-01-19T09:20:44;69.88;;;26.73;;
37049;SDS011;22958;51.232;6.826;2023-01-19T09:23:12;65.72;;;25.52;;
37049;SDS011;22958;51.232;6.826;2023-01-19T09:25:40;64.25;;;27.52;;
37049;SDS011;22958;51.232;6.826;2023-01-19T09:28:07;71.53;;;29.38;;
37049;SDS011;22958;51.232;6.826;2023-01-19T09:30:38;72.00;;;27.40;;
37049;SDS011;22958;51.232;6.826;2023-01-19T09:33:05;67.13;;;28.17;;
37049;SDS011;22958;51.232;6.826;2023-01-19T09:35:32;74.68;;;27.95;;
37049;SDS011;22958;51.232;6.826;2023-01-19T09:37:59;68.53;;;26.85;;
37049;SDS011;22958;51.232;6.826;2023-01-19T09:40:25;66.60;;;25.70;;
37049;SDS011;22958;51.232;6.826;2023-01-19T09:45:56;80.00;;;28.50;;
37049;SDS011;22958;51.232;6.826;2023-01-19T09:48:38;73.82;;;29.77;;
37049;SDS011;22958;51.232;6.826;2023-01-19T09:51:06;82.30;;;29.20;;
37049;SDS011;22958;51.232;6.826;2023-01-19T09:53:50;84.38;;;31.60;;
37049;SDS011;22958;51.232;6.826;2023-01-19T09:56:26;80.88;;;29.95;;
37049;SDS011;22958;51.232;6.826;2023-01-19T09:58:53;87.05;;;29.13;;
37049;SDS011;22958;51.232;6.826;2023-01-19T10:01:22;79.40;;;30.47;;
37049;SDS011;22958;51.232;6.826;2023-01-19T10:04:04;74.75;;;29.95;;
37049;SDS011;22958;51.232;6.826;2023-01-19T10:06:58;70.22;;;26.85;;
37049;SDS011;22958;51.232;6.826;2023-01-19T10:12:30;74.70;;;26.20;;
37049;SDS011;22958;51.232;6.826;2023-01-19T10:15:03;78.82;;;30.38;;
37049;SDS011;22958;51.232;6.826;2023-01-19T10:18:08;73.53;;;27.23;;
37049;SDS011;22958;51.232;6.826;2023-01-19T10:20:37;74.53;;;28.40;;
37049;SDS011;22958;51.232;6.826;2023-01-19T10:23:13;77.88;;;27.52;;
37049;SDS011;22958;51.232;6.826;2023-01-19T10:26:03;80.82;;;27.98;;
37049;SDS011;22958;51.232;6.826;2023-01-19T10:28:32;80.45;;;28.50;;
37049;SDS011;22958;51.232;6.826;2023-01-19T10:30:59;80.30;;;28.02;;
37049;SDS011;22958;51.232;6.826;2023-01-19T10:33:24;68.10;;;27.03;;
37049;SDS011;22958;51.232;6.826;2023-01-19T10:35:51;72.25;;;26.88;;
37049;SDS011;22958;51.232;6.826;2023-01-19T10:38:16;87.00;;;26.87;;
37049;SDS011;22958;51.232;6.826;2023-01-19T10:40:59;82.30;;;27.25;;
37049;SDS011;22958;51.232;6.826;2023-01-19T10:46:05;75.18;;;26.23;;
37049;SDS011;22958;51.232;6.826;2023-01-19T10:48:46;80.68;;;24.95;;
37049;SDS011;22958;51.232;6.826;2023-01-19T10:51:14;71.97;;;25.25;;
37049;SDS011;22958;51.232;6.826;2023-01-19T10:53:41;86.70;;;25.45;;
37049;SDS011;22958;51.232;6.826;2023-01-19T10:56:21;68.97;;;25.05;;
37049;SDS011;22958;51.232;6.826;2023-01-19T10:58:53;72.03;;;26.00;;
37049;SDS011;22958;51.232;6.826;2023-01-19T11:01:20;73.37;;;27.33;;
37049;SDS011;22958;51.232;6.826;2023-01-19T11:03:47;79.10;;;25.13;;
37049;SDS011;22958;51.232;6.826;2023-01-19T11:08:39;66.07;;;26.33;;
37049;SDS011;22958;51.232;6.826;2023-01-19T11:11:06;63.92;;;25.23;;
37049;SDS011;22958;51.232;6.826;2023-01-19T11:13:33;70.68;;;23.95;;
37049;SDS011;22958;51.232;6.826;2023-01-19T11:16:07;65.35;;;24.40;;
37049;SDS011;22958;51.232;6.826;2023-01-19T11:18:53;68.55;;;25.27;;
37049;SDS011;22958;51.232;6.826;2023-01-19T11:21:24;61.35;;;23.45;;
37049;SDS011;22958;51.232;6.826;2023-01-19T11:23:55;74.53;;;24.73;;
37049;SDS011;22958;51.232;6.826;2023-01-19T11:26:33;61.65;;;25.23;;
37049;SDS011;22958;51.232;6.826;2023-01-19T11:28:59;76.93;;;27.63;;
37049;SDS011;22958;51.232;6.826;2023-01-19T11:33:54;81.63;;;29.87;;
37049;SDS011;22958;51.232;6.826;2023-01-19T11:36:22;83.28;;;31.52;;
37049;SDS011;22958;51.232;6.826;2023-01-19T11:39:17;91.53;;;33.55;;
37049;SDS011;22958;51.232;6.826;2023-01-19T11:41:48;91.03;;;31.57;;
37049;SDS011;22958;51.232;6.826;2023-01-19T11:44:23;85.68;;;30.20;;
37049;SDS011;22958;51.232;6.826;2023-01-19T11:47:02;84.13;;;28.48;;
37049;SDS011;22958;51.232;6.826;2023-01-19T11:49:41;73.07;;;26.98;;
37049;SDS011;22958;51.232;6.826;2023-01-19T11:52:25;94.57;;;30.70;;
37049;SDS011;22958;51.232;6.826;2023-01-19T11:58:00;82.07;;;27.15;;
37049;SDS011;22958;51.232;6.826;2023-01-19T12:00:31;74.15;;;25.98;;
37049;SDS011;22958;51.232;6.826;2023-01-19T12:03:46;82.10;;;28.63;;
37049;SDS011;22958;51.232;6.826;2023-01-19T12:05:50;82.82;;;30.10;;
37049;SDS011;22958;51.232;6.826;2023-01-19T12:08:19;88.15;;;28.52;;
37049;SDS011;22958;51.232;6.826;2023-01-19T12:10:48;69.32;;;25.45;;
37049;SDS011;22958;51.232;6.826;2023-01-19T12:13:21;63.40;;;24.40;;
37049;SDS011;22958;51.232;6.826;2023-01-19T12:18:37;78.45;;;24.98;;
37049;SDS011;22958;51.232;6.826;2023-01-19T12:21:06;70.30;;;24.55;;
37049;SDS011;22958;51.232;6.826;2023-01-19T12:23:38;65.57;;;26.83;;
37049;SDS011;22958;51.232;6.826;2023-01-19T12:26:17;73.70;;;23.92;;
37049;SDS011;22958;51.232;6.826;2023-01-19T12:29:04;66.15;;;23.55;;
37049;SDS011;22958;51.232;6.826;2023-01-19T12:31:29;59.13;;;23.65;;
37049;SDS011;22958;51.232;6.826;2023-01-19T12:33:57;64.30;;;22.30;;
37049;SDS011;22958;51.232;6.826;2023-01-19T12:36:51;71.43;;;23.65;;
37049;SDS011;22958;51.232;6.826;2023-01-19T12:39:20;62.13;;;24.13;;
37049;SDS011;22958;51.232;6.826;2023-01-19T12:41:47;75.55;;;24.73;;
37049;SDS011;22958;51.232;6.826;2023-01-19T12:44:27;60.60;;;23.88;;
37049;SDS011;22958;51.232;6.826;2023-01-19T12:46:55;74.35;;;24.73;;
37049;SDS011;22958;51.232;6.826;2023-01-19T12:57:26;57.47;;;23.20;;
37049;SDS011;22958;51.232;6.826;2023-01-19T13:00:00;66.88;;;23.30;;
37049;SDS011;22958;51.232;6.826;2023-01-19T13:02:44;63.40;;;23.27;;
37049;SDS011;22958;51.232;6.826;2023-01-19T13:05:15;58.17;;;20.70;;
37049;SDS011;22958;51.232;6.826;2023-01-19T13:21:32;61.53;;;22.88;;
37049;SDS011;22958;51.232;6.826;2023-01-19T13:24:03;63.65;;;24.85;;
37049;SDS011;22958;51.232;6.826;2023-01-19T13:26:30;55.25;;;22.95;;
37049;SDS011;22958;51.232;6.826;2023-01-19T13:29:02;74.65;;;25.67;;
37049;SDS011;22958;51.232;6.826;2023-01-19T13:31:34;67.03;;;26.85;;
37049;SDS011;22958;51.232;6.826;2023-01-19T13:34:08;74.50;;;25.98;;
37049;SDS011;22958;51.232;6.826;2023-01-19T13:36:48;85.85;;;26.63;;
37049;SDS011;22958;51.232;6.826;2023-01-19T13:39:18;60.67;;;24.23;;
37049;SDS011;22958;51.232;6.826;2023-01-19T13:41:46;63.38;;;25.85;;
37049;SDS011;22958;51.232;6.826;2023-01-19T13:44:19;71.03;;;26.45;;
37049;SDS011;22958;51.232;6.826;2023-01-19T13:46:54;75.10;;;26.63;;
37049;SDS011;22958;51.232;6.826;2023-01-19T13:49:34;66.68;;;25.52;;
37049;SDS011;22958;51.232;6.826;2023-01-19T13:52:03;68.80;;;23.90;;
37049;SDS011;22958;51.232;6.826;2023-01-19T13:54:29;55.88;;;20.75;;
37049;SDS011;22958;51.232;6.826;2023-01-19T13:56:55;59.53;;;20.90;;
37049;SDS011;22958;51.232;6.826;2023-01-19T13:59:21;54.27;;;21.67;;
37049;SDS011;22958;51.232;6.826;2023-01-19T14:01:46;58.13;;;22.10;;
37049;SDS011;22958;51.232;6.826;2023-01-19T14:04:33;59.38;;;22.52;;
37049;SDS011;22958;51.232;6.826;2023-01-19T14:07:05;56.03;;;20.42;;
37049;SDS011;22958;51.232;6.826;2023-01-19T14:09:39;46.00;;;19.60;;
37049;SDS011;22958;51.232;6.826;2023-01-19T14:14:42;46.22;;;20.10;;
37049;SDS011;22958;51.232;6.826;2023-01-19T14:17:22;47.28;;;18.85;;
37049;SDS011;22958;51.232;6.826;2023-01-19T14:19:51;52.15;;;17.90;;
37049;SDS011;22958;51.232;6.826;2023-01-19T14:22:18;55.25;;;20.92;;
37049;SDS011;22958;51.232;6.826;2023-01-19T14:24:44;43.33;;;18.37;;
37049;SDS011;22958;51.232;6.826;2023-01-19T14:27:22;48.10;;;19.07;;
37049;SDS011;22958;51.232;6.826;2023-01-19T14:29:49;50.83;;;19.80;;
37049;SDS011;22958;51.232;6.826;2023-01-19T14:34:48;57.72;;;20.00;;
37049;SDS011;22958;51.232;6.826;2023-01-19T14:37:28;50.35;;;19.52;;
37049;SDS011;22958;51.232;6.826;2023-01-19T14:39:57;55.53;;;19.23;;
37049;SDS011;22958;51.232;6.826;2023-01-19T14:42:33;59.20;;;19.73;;
37049;SDS011;22958;51.232;6.826;2023-01-19T14:45:19;54.88;;;19.65;;
37049;SDS011;22958;51.232;6.826;2023-01-19T14:47:53;39.88;;;16.98;;
37049;SDS011;22958;51.232;6.826;2023-01-19T14:50:22;47.85;;;18.90;;
37049;SDS011;22958;51.232;6.826;2023-01-19T14:52:53;46.50;;;18.20;;
37049;SDS011;22958;51.232;6.826;2023-01-19T14:58:00;52.30;;;19.38;;
37049;SDS011;22958;51.232;6.826;2023-01-19T15:00:26;58.27;;;20.00;;
37049;SDS011;22958;51.232;6.826;2023-01-19T15:02:51;53.50;;;19.67;;
37049;SDS011;22958;51.232;6.826;2023-01-19T15:05:17;53.27;;;18.17;;
37049;SDS011;22958;51.232;6.826;2023-01-19T15:07:43;60.55;;;18.33;;
37049;SDS011;22958;51.232;6.826;2023-01-19T15:10:14;49.17;;;17.73;;
37049;SDS011;22958;51.232;6.826;2023-01-19T15:12:45;44.00;;;19.63;;
37049;SDS011;22958;51.232;6.826;2023-01-19T15:15:13;55.13;;;19.65;;
37049;SDS011;22958;51.232;6.826;2023-01-19T15:17:43;50.35;;;19.52;;
37049;SDS011;22958;51.232;6.826;2023-01-19T15:20:13;52.08;;;19.90;;
37049;SDS011;22958;51.232;6.826;2023-01-19T15:22:41;53.03;;;19.27;;
37049;SDS011;22958;51.232;6.826;2023-01-19T15:25:07;55.40;;;19.77;;
37049;SDS011;22958;51.232;6.826;2023-01-19T15:27:36;46.72;;;18.05;;
37049;SDS011;22958;51.232;6.826;2023-01-19T15:30:01;49.20;;;18.30;;
37049;SDS011;22958;51.232;6.826;2023-01-19T15:32:27;46.23;;;17.80;;
37049;SDS011;22958;51.232;6.826;2023-01-19T15:34:52;45.53;;;18.40;;
37049;SDS011;22958;51.232;6.826;2023-01-19T15:37:18;48.03;;;19.63;;
37049;SDS011;22958;51.232;6.826;2023-01-19T15:39:43;61.27;;;21.23;;
37049;SDS011;22958;51.232;6.826;2023-01-19T15:42:11;53.40;;;19.90;;
37049;SDS011;22958;51.232;6.826;2023-01-19T15:44:38;57.13;;;20.98;;
37049;SDS011;22958;51.232;6.826;2023-01-19T15:47:03;46.77;;;21.40;;
37049;SDS011;22958;51.232;6.826;2023-01-19T15:49:29;47.87;;;21.50;;